sensor_id;sensor_type;location;lat;lon;timestamp;pressure;altitude;pressure_sealevel;temperature;humidity
79370;BME280;68835;53.096;17.932;2023-07-02T00:02:00;99510.35;;;18.99;59.78
79370;BME280;68835;53.096;17.932;2023-07-02T00:04:27;99512.08;;;18.96;59.87
79370;BME280;68835;53.096;17.932;2023-07-02T00:06:54;99515.19;;;18.94;60.14
79370;BME280;68835;53.096;17.932;2023-07-02T00:09:20;99509.69;;;18.90;60.15
79370;BME280;68835;53.096;17.932;2023-07-02T00:11:47;99506.81;;;18.87;60.16
79370;BME280;68835;53.096;17.932;2023-07-02T00:14:14;99507.11;;;18.84;60.28
79370;BME280;68835;53.096;17.932;2023-07-02T00:16:45;99507.89;;;18.83;60.62
79370;BME280;68835;53.096;17.932;2023-07-02T00:19:14;99509.27;;;18.79;60.60
79370;BME280;68835;53.096;17.932;2023-07-02T00:21:41;99510.79;;;18.77;60.62
79370;BME280;68835;53.096;17.932;2023-07-02T00:24:09;99510.14;;;18.76;61.19
79370;BME280;68835;53.096;17.932;2023-07-02T00:26:36;99513.26;;;18.73;61.18
79370;BME280;68835;53.096;17.932;2023-07-02T00:29:05;99509.66;;;18.71;61.52
79370;BME280;68835;53.096;17.932;2023-07-02T00:31:33;99506.92;;;18.72;61.53
79370;BME280;68835;53.096;17.932;2023-07-02T00:34:00;99501.67;;;18.70;61.37
79370;BME280;68835;53.096;17.932;2023-07-02T00:36:30;99500.30;;;18.69;61.51
79370;BME280;68835;53.096;17.932;2023-07-02T00:38:58;99504.66;;;18.67;61.71
79370;BME280;68835;53.096;17.932;2023-07-02T00:41:26;99501.08;;;18.64;62.01
79370;BME280;68835;53.096;17.932;2023-07-02T00:43:53;99498.51;;;18.61;61.83
79370;BME280;68835;53.096;17.932;2023-07-02T00:46:23;99500.33;;;18.60;61.83
79370;BME280;68835;53.096;17.932;2023-07-02T00:48:54;99491.87;;;18.59;61.99
79370;BME280;68835;53.096;17.932;2023-07-02T00:51:25;99492.83;;;18.57;62.20
79370;BME280;68835;53.096;17.932;2023-07-02T00:53:57;99491.35;;;18.54;62.34
79370;BME280;68835;53.096;17.932;2023-07-02T00:56:25;99489.02;;;18.55;62.21
79370;BME280;68835;53.096;17.932;2023-07-02T00:58:55;99486.79;;;18.57;62.28
79370;BME280;68835;53.096;17.932;2023-07-02T01:01:26;99488.04;;;18.57;62.34
79370;BME280;68835;53.096;17.932;2023-07-02T01:06:31;99488.59;;;18.52;62.92
79370;BME280;68835;53.096;17.932;2023-07-02T01:09:07;99483.92;;;18.50;62.85
79370;BME280;68835;53.096;17.932;2023-07-02T01:14:04;99489.19;;;18.43;63.22
79370;BME280;68835;53.096;17.932;2023-07-02T01:16:32;99488.70;;;18.42;63.45
79370;BME280;68835;53.096;17.932;2023-07-02T01:19:02;99485.27;;;18.40;63.58
79370;BME280;68835;53.096;17.932;2023-07-02T01:21:32;99480.53;;;18.42;63.51
79370;BME280;68835;53.096;17.932;2023-07-02T01:24:00;99482.36;;;18.45;63.55
79370;BME280;68835;53.096;17.932;2023-07-02T01:26:30;99483.44;;;18.45;63.75
79370;BME280;68835;53.096;17.932;2023-07-02T01:28:57;99482.13;;;18.42;64.03
79370;BME280;68835;53.096;17.932;2023-07-02T01:31:23;99481.64;;;18.37;64.46
79370;BME280;68835;53.096;17.932;2023-07-02T01:33:52;99481.14;;;18.31;64.70
79370;BME280;68835;53.096;17.932;2023-07-02T01:36:19;99480.48;;;18.27;64.74
79370;BME280;68835;53.096;17.932;2023-07-02T01:38:45;99481.89;;;18.22;65.18
79370;BME280;68835;53.096;17.932;2023-07-02T01:41:12;99480.73;;;18.16;65.74
79370;BME280;68835;53.096;17.932;2023-07-02T01:43:41;99475.75;;;18.08;66.30
79370;BME280;68835;53.096;17.932;2023-07-02T01:46:07;99477.73;;;18.07;66.45
79370;BME280;68835;53.096;17.932;2023-07-02T01:48:34;99476.70;;;18.02;66.84
79370;BME280;68835;53.096;17.932;2023-07-02T01:51:00;99477.86;;;17.96;67.42
79370;BME280;68835;53.096;17.932;2023-07-02T01:53:27;99474.48;;;17.88;67.49
79370;BME280;68835;53.096;17.932;2023-07-02T01:55:53;99470.45;;;17.82;67.64
79370;BME280;68835;53.096;17.932;2023-07-02T01:58:20;99469.74;;;17.77;68.62
79370;BME280;68835;53.096;17.932;2023-07-02T02:00:47;99466.52;;;17.73;68.88
79370;BME280;68835;53.096;17.932;2023-07-02T02:03:14;99460.48;;;17.70;68.63
79370;BME280;68835;53.096;17.932;2023-07-02T02:05:41;99458.38;;;17.68;68.77
79370;BME280;68835;53.096;17.932;2023-07-02T02:08:09;99456.04;;;17.66;69.11
79370;BME280;68835;53.096;17.932;2023-07-02T02:10:37;99453.91;;;17.61;69.49
79370;BME280;68835;53.096;17.932;2023-07-02T02:13:03;99457.80;;;17.57;69.80
79370;BME280;68835;53.096;17.932;2023-07-02T02:15:30;99457.14;;;17.55;69.96
79370;BME280;68835;53.096;17.932;2023-07-02T02:17:56;99451.80;;;17.51;70.44
79370;BME280;68835;53.096;17.932;2023-07-02T02:20:23;99450.86;;;17.48;70.40
79370;BME280;68835;53.096;17.932;2023-07-02T02:22:49;99449.92;;;17.45;70.86
79370;BME280;68835;53.096;17.932;2023-07-02T02:25:16;99452.70;;;17.42;70.62
79370;BME280;68835;53.096;17.932;2023-07-02T02:27:42;99455.52;;;17.43;70.87
79370;BME280;68835;53.096;17.932;2023-07-02T02:30:10;99449.67;;;17.42;70.79
79370;BME280;68835;53.096;17.932;2023-07-02T02:32:39;99452.07;;;17.40;71.22
79370;BME280;68835;53.096;17.932;2023-07-02T02:35:07;99454.30;;;17.38;71.49
79370;BME280;68835;53.096;17.932;2023-07-02T02:37:36;99452.24;;;17.35;71.49
79370;BME280;68835;53.096;17.932;2023-07-02T02:40:06;99451.41;;;17.34;71.65
79370;BME280;68835;53.096;17.932;2023-07-02T02:42:35;99455.00;;;17.37;71.80
79370;BME280;68835;53.096;17.932;2023-07-02T02:45:03;99456.34;;;17.40;72.01
79370;BME280;68835;53.096;17.932;2023-07-02T02:47:30;99458.09;;;17.40;72.36
79370;BME280;68835;53.096;17.932;2023-07-02T02:49:57;99451.96;;;17.33;72.41
79370;BME280;68835;53.096;17.932;2023-07-02T02:52:23;99452.88;;;17.33;72.71
79370;BME280;68835;53.096;17.932;2023-07-02T02:54:50;99451.22;;;17.34;73.04
79370;BME280;68835;53.096;17.932;2023-07-02T02:57:19;99449.73;;;17.32;73.60
79370;BME280;68835;53.096;17.932;2023-07-02T02:59:46;99447.10;;;17.27;73.89
79370;BME280;68835;53.096;17.932;2023-07-02T03:02:12;99448.08;;;17.24;74.16
79370;BME280;68835;53.096;17.932;2023-07-02T03:04:39;99445.30;;;17.23;74.19
79370;BME280;68835;53.096;17.932;2023-07-02T03:07:06;99438.98;;;17.22;74.42
79370;BME280;68835;53.096;17.932;2023-07-02T03:09:33;99437.88;;;17.23;74.42
79370;BME280;68835;53.096;17.932;2023-07-02T03:12:00;99438.02;;;17.24;74.69
79370;BME280;68835;53.096;17.932;2023-07-02T03:14:27;99435.46;;;17.26;74.47
79370;BME280;68835;53.096;17.932;2023-07-02T03:16:55;99435.23;;;17.27;74.74
79370;BME280;68835;53.096;17.932;2023-07-02T03:19:21;99436.89;;;17.25;74.94
79370;BME280;68835;53.096;17.932;2023-07-02T03:21:48;99433.41;;;17.24;74.94
79370;BME280;68835;53.096;17.932;2023-07-02T03:24:14;99434.73;;;17.26;74.93
79370;BME280;68835;53.096;17.932;2023-07-02T03:26:43;99432.06;;;17.31;75.10
79370;BME280;68835;53.096;17.932;2023-07-02T03:29:10;99430.83;;;17.36;75.14
79370;BME280;68835;53.096;17.932;2023-07-02T03:31:38;99429.17;;;17.38;74.88
79370;BME280;68835;53.096;17.932;2023-07-02T03:34:09;99426.83;;;17.40;74.76
79370;BME280;68835;53.096;17.932;2023-07-02T03:36:36;99426.76;;;17.45;74.62
79370;BME280;68835;53.096;17.932;2023-07-02T03:39:04;99428.49;;;17.50;74.66
79370;BME280;68835;53.096;17.932;2023-07-02T03:41:31;99431.18;;;17.54;74.59
79370;BME280;68835;53.096;17.932;2023-07-02T03:43:58;99434.27;;;17.56;74.60
79370;BME280;68835;53.096;17.932;2023-07-02T03:46:25;99430.96;;;17.55;74.60
79370;BME280;68835;53.096;17.932;2023-07-02T03:48:51;99428.60;;;17.57;74.84
79370;BME280;68835;53.096;17.932;2023-07-02T03:51:18;99433.09;;;17.59;75.05
79370;BME280;68835;53.096;17.932;2023-07-02T03:53:45;99437.99;;;17.60;74.64
79370;BME280;68835;53.096;17.932;2023-07-02T03:56:12;99437.46;;;17.61;74.42
79370;BME280;68835;53.096;17.932;2023-07-02T03:58:42;99436.39;;;17.60;74.30
79370;BME280;68835;53.096;17.932;2023-07-02T04:01:09;99432.43;;;17.63;74.38
79370;BME280;68835;53.096;17.932;2023-07-02T04:03:36;99439.02;;;17.67;74.49
79370;BME280;68835;53.096;17.932;2023-07-02T04:06:03;99435.60;;;17.68;74.43
79370;BME280;68835;53.096;17.932;2023-07-02T04:08:32;99432.86;;;17.70;74.41
79370;BME280;68835;53.096;17.932;2023-07-02T04:10:58;99437.48;;;17.73;74.39
79370;BME280;68835;53.096;17.932;2023-07-02T04:13:25;99442.02;;;17.81;74.26
79370;BME280;68835;53.096;17.932;2023-07-02T04:15:52;99435.41;;;17.86;73.86
79370;BME280;68835;53.096;17.932;2023-07-02T04:18:18;99435.71;;;17.92;73.81
79370;BME280;68835;53.096;17.932;2023-07-02T04:20:45;99436.64;;;17.96;73.78
79370;BME280;68835;53.096;17.932;2023-07-02T04:23:11;99433.20;;;17.97;73.47
79370;BME280;68835;53.096;17.932;2023-07-02T04:25:41;99436.92;;;18.05;73.57
79370;BME280;68835;53.096;17.932;2023-07-02T04:28:08;99433.03;;;18.14;73.23
79370;BME280;68835;53.096;17.932;2023-07-02T04:30:35;99437.21;;;18.15;73.25
79370;BME280;68835;53.096;17.932;2023-07-02T04:33:02;99435.38;;;18.17;73.07
79370;BME280;68835;53.096;17.932;2023-07-02T04:35:28;99437.33;;;18.21;73.10
79370;BME280;68835;53.096;17.932;2023-07-02T04:37:55;99442.39;;;18.27;72.86
79370;BME280;68835;53.096;17.932;2023-07-02T04:40:21;99436.65;;;18.29;72.61
79370;BME280;68835;53.096;17.932;2023-07-02T04:42:48;99444.44;;;18.29;72.53
79370;BME280;68835;53.096;17.932;2023-07-02T04:45:15;99447.17;;;18.27;72.87
79370;BME280;68835;53.096;17.932;2023-07-02T04:47:43;99445.11;;;18.25;72.80
79370;BME280;68835;53.096;17.932;2023-07-02T04:50:11;99454.41;;;18.27;72.68
79370;BME280;68835;53.096;17.932;2023-07-02T04:52:38;99460.06;;;18.28;73.12
79370;BME280;68835;53.096;17.932;2023-07-02T04:55:06;99462.69;;;18.20;74.31
79370;BME280;68835;53.096;17.932;2023-07-02T04:57:33;99468.40;;;18.02;76.08
79370;BME280;68835;53.096;17.932;2023-07-02T05:00:00;99469.67;;;17.83;76.56
79370;BME280;68835;53.096;17.932;2023-07-02T05:02:27;99469.64;;;17.70;77.87
79370;BME280;68835;53.096;17.932;2023-07-02T05:04:54;99469.17;;;17.55;78.17
79370;BME280;68835;53.096;17.932;2023-07-02T05:07:20;99479.77;;;17.42;78.75
79370;BME280;68835;53.096;17.932;2023-07-02T05:09:47;99475.24;;;17.35;78.86
79370;BME280;68835;53.096;17.932;2023-07-02T05:12:19;99479.27;;;17.31;79.34
79370;BME280;68835;53.096;17.932;2023-07-02T05:14:46;99480.05;;;17.29;79.36
79370;BME280;68835;53.096;17.932;2023-07-02T05:17:15;99482.38;;;17.28;79.90
79370;BME280;68835;53.096;17.932;2023-07-02T05:19:43;99484.73;;;17.32;79.90
79370;BME280;68835;53.096;17.932;2023-07-02T05:22:10;99486.88;;;17.31;79.71
79370;BME280;68835;53.096;17.932;2023-07-02T05:24:37;99494.37;;;17.39;79.83
79370;BME280;68835;53.096;17.932;2023-07-02T05:27:04;99493.55;;;17.42;79.69
79370;BME280;68835;53.096;17.932;2023-07-02T05:29:31;99500.27;;;17.42;80.32
79370;BME280;68835;53.096;17.932;2023-07-02T05:31:58;99498.64;;;17.43;79.82
79370;BME280;68835;53.096;17.932;2023-07-02T05:34:24;99503.67;;;17.46;79.93
79370;BME280;68835;53.096;17.932;2023-07-02T05:36:53;99503.11;;;17.51;79.58
79370;BME280;68835;53.096;17.932;2023-07-02T05:39:20;99503.80;;;17.61;79.42
79370;BME280;68835;53.096;17.932;2023-07-02T05:41:48;99502.81;;;17.68;79.19
79370;BME280;68835;53.096;17.932;2023-07-02T05:44:16;99499.34;;;17.71;79.08
79370;BME280;68835;53.096;17.932;2023-07-02T05:46:42;99501.56;;;17.78;78.98
79370;BME280;68835;53.096;17.932;2023-07-02T05:49:09;99511.10;;;17.83;78.82
79370;BME280;68835;53.096;17.932;2023-07-02T05:51:35;99517.52;;;17.82;78.47
79370;BME280;68835;53.096;17.932;2023-07-02T05:54:02;99521.11;;;17.75;78.42
79370;BME280;68835;53.096;17.932;2023-07-02T05:56:29;99517.81;;;17.79;78.28
79370;BME280;68835;53.096;17.932;2023-07-02T05:58:55;99504.65;;;17.80;78.04
79370;BME280;68835;53.096;17.932;2023-07-02T06:01:22;99497.65;;;17.83;78.07
79370;BME280;68835;53.096;17.932;2023-07-02T06:03:51;99501.78;;;17.86;77.29
79370;BME280;68835;53.096;17.932;2023-07-02T06:06:21;99507.64;;;17.90;77.03
79370;BME280;68835;53.096;17.932;2023-07-02T06:08:48;99507.38;;;17.97;76.77
79370;BME280;68835;53.096;17.932;2023-07-02T06:11:15;99509.52;;;18.05;76.59
79370;BME280;68835;53.096;17.932;2023-07-02T06:13:42;99518.39;;;18.09;74.56
79370;BME280;68835;53.096;17.932;2023-07-02T06:16:09;99514.77;;;18.11;74.82
79370;BME280;68835;53.096;17.932;2023-07-02T06:18:35;99515.41;;;18.13;75.10
79370;BME280;68835;53.096;17.932;2023-07-02T06:21:02;99517.88;;;18.13;74.49
79370;BME280;68835;53.096;17.932;2023-07-02T06:23:42;99524.05;;;18.13;74.08
79370;BME280;68835;53.096;17.932;2023-07-02T06:26:29;99527.46;;;18.12;72.93
79370;BME280;68835;53.096;17.932;2023-07-02T06:29:00;99528.94;;;18.20;73.24
79370;BME280;68835;53.096;17.932;2023-07-02T06:31:29;99530.44;;;18.30;72.64
79370;BME280;68835;53.096;17.932;2023-07-02T06:33:56;99535.17;;;18.45;71.91
79370;BME280;68835;53.096;17.932;2023-07-02T06:36:38;99536.69;;;18.59;70.19
79370;BME280;68835;53.096;17.932;2023-07-02T06:39:12;99538.54;;;18.70;69.34
79370;BME280;68835;53.096;17.932;2023-07-02T06:41:40;99544.88;;;18.75;68.87
79370;BME280;68835;53.096;17.932;2023-07-02T06:44:15;99546.25;;;18.80;67.70
79370;BME280;68835;53.096;17.932;2023-07-02T06:46:47;99539.93;;;18.88;66.43
79370;BME280;68835;53.096;17.932;2023-07-02T06:49:18;99544.60;;;18.98;66.16
79370;BME280;68835;53.096;17.932;2023-07-02T06:51:54;99542.77;;;19.00;65.81
79370;BME280;68835;53.096;17.932;2023-07-02T06:54:21;99545.35;;;18.89;64.87
79370;BME280;68835;53.096;17.932;2023-07-02T06:56:49;99552.14;;;18.80;64.98
79370;BME280;68835;53.096;17.932;2023-07-02T06:59:19;99551.63;;;18.83;65.12
79370;BME280;68835;53.096;17.932;2023-07-02T07:01:46;99550.52;;;18.85;63.86
79370;BME280;68835;53.096;17.932;2023-07-02T07:04:13;99554.48;;;18.95;64.50
79370;BME280;68835;53.096;17.932;2023-07-02T07:06:42;99563.33;;;19.04;62.48
79370;BME280;68835;53.096;17.932;2023-07-02T07:09:09;99567.12;;;19.06;61.77
79370;BME280;68835;53.096;17.932;2023-07-02T07:11:38;99557.77;;;19.05;62.10
79370;BME280;68835;53.096;17.932;2023-07-02T07:14:07;99564.84;;;19.10;61.79
79370;BME280;68835;53.096;17.932;2023-07-02T07:16:38;99569.14;;;19.09;61.50
79370;BME280;68835;53.096;17.932;2023-07-02T07:19:07;99570.06;;;19.16;61.64
79370;BME280;68835;53.096;17.932;2023-07-02T07:21:38;99565.90;;;19.26;61.31
79370;BME280;68835;53.096;17.932;2023-07-02T07:24:08;99582.33;;;19.23;60.85
79370;BME280;68835;53.096;17.932;2023-07-02T07:26:37;99569.34;;;19.20;61.67
79370;BME280;68835;53.096;17.932;2023-07-02T07:29:06;99566.70;;;19.20;61.63
79370;BME280;68835;53.096;17.932;2023-07-02T07:31:38;99570.19;;;19.17;61.31
79370;BME280;68835;53.096;17.932;2023-07-02T07:34:10;99569.00;;;19.24;61.47
79370;BME280;68835;53.096;17.932;2023-07-02T07:36:37;99570.89;;;19.33;60.94
79370;BME280;68835;53.096;17.932;2023-07-02T07:39:05;99567.28;;;19.47;61.20
79370;BME280;68835;53.096;17.932;2023-07-02T07:41:36;99561.50;;;19.61;61.03
79370;BME280;68835;53.096;17.932;2023-07-02T07:44:12;99567.05;;;19.75;58.56
79370;BME280;68835;53.096;17.932;2023-07-02T07:46:40;99568.19;;;19.82;55.85
79370;BME280;68835;53.096;17.932;2023-07-02T07:49:14;99562.90;;;19.85;55.79
79370;BME280;68835;53.096;17.932;2023-07-02T07:51:44;99569.26;;;19.82;54.71
79370;BME280;68835;53.096;17.932;2023-07-02T07:54:17;99574.64;;;19.80;55.44
79370;BME280;68835;53.096;17.932;2023-07-02T07:56:48;99575.23;;;19.87;55.91
79370;BME280;68835;53.096;17.932;2023-07-02T07:59:28;99584.88;;;19.93;54.05
79370;BME280;68835;53.096;17.932;2023-07-02T08:01:59;99584.73;;;19.92;52.74
79370;BME280;68835;53.096;17.932;2023-07-02T08:04:27;99584.51;;;19.97;52.71
79370;BME280;68835;53.096;17.932;2023-07-02T08:06:58;99587.66;;;20.05;53.04
79370;BME280;68835;53.096;17.932;2023-07-02T08:09:35;99595.20;;;20.07;52.25
79370;BME280;68835;53.096;17.932;2023-07-02T08:12:04;99594.64;;;20.04;51.92
79370;BME280;68835;53.096;17.932;2023-07-02T08:14:34;99599.73;;;19.91;51.81
79370;BME280;68835;53.096;17.932;2023-07-02T08:17:04;99601.83;;;19.72;52.38
79370;BME280;68835;53.096;17.932;2023-07-02T08:19:32;99603.45;;;19.59;52.82
79370;BME280;68835;53.096;17.932;2023-07-02T08:22:05;99606.91;;;19.61;52.76
79370;BME280;68835;53.096;17.932;2023-07-02T08:24:37;99606.35;;;19.62;52.33
79370;BME280;68835;53.096;17.932;2023-07-02T08:27:10;99603.05;;;19.65;52.51
79370;BME280;68835;53.096;17.932;2023-07-02T08:29:41;99603.73;;;19.73;52.12
79370;BME280;68835;53.096;17.932;2023-07-02T08:32:08;99590.18;;;19.78;52.19
79370;BME280;68835;53.096;17.932;2023-07-02T08:34:35;99584.50;;;19.90;52.11
79370;BME280;68835;53.096;17.932;2023-07-02T08:37:02;99595.34;;;20.04;51.30
79370;BME280;68835;53.096;17.932;2023-07-02T08:39:30;99590.69;;;20.16;50.48
79370;BME280;68835;53.096;17.932;2023-07-02T08:41:57;99595.52;;;20.26;49.90
79370;BME280;68835;53.096;17.932;2023-07-02T08:44:29;99588.08;;;20.37;48.90
79370;BME280;68835;53.096;17.932;2023-07-02T08:46:56;99596.65;;;20.55;49.35
79370;BME280;68835;53.096;17.932;2023-07-02T08:49:24;99603.48;;;20.71;48.46
79370;BME280;68835;53.096;17.932;2023-07-02T08:51:52;99601.36;;;20.89;48.11
79370;BME280;68835;53.096;17.932;2023-07-02T08:54:19;99599.30;;;20.98;47.65
79370;BME280;68835;53.096;17.932;2023-07-02T08:56:46;99603.20;;;21.02;47.64
79370;BME280;68835;53.096;17.932;2023-07-02T08:59:15;99605.65;;;20.96;46.20
79370;BME280;68835;53.096;17.932;2023-07-02T09:01:50;99605.30;;;21.03;46.06
79370;BME280;68835;53.096;17.932;2023-07-02T09:04:27;99609.77;;;21.19;45.37
79370;BME280;68835;53.096;17.932;2023-07-02T09:07:11;99600.29;;;21.31;45.00
79370;BME280;68835;53.096;17.932;2023-07-02T09:09:48;99584.04;;;21.35;43.82
79370;BME280;68835;53.096;17.932;2023-07-02T09:12:31;99589.52;;;21.46;43.58
79370;BME280;68835;53.096;17.932;2023-07-02T09:15:08;99591.60;;;21.57;43.39
79370;BME280;68835;53.096;17.932;2023-07-02T09:17:37;99588.65;;;21.69;43.04
79370;BME280;68835;53.096;17.932;2023-07-02T09:20:06;99583.23;;;21.87;43.01
79370;BME280;68835;53.096;17.932;2023-07-02T09:22:36;99583.98;;;22.05;43.22
79370;BME280;68835;53.096;17.932;2023-07-02T09:25:05;99585.52;;;22.23;43.19
79370;BME280;68835;53.096;17.932;2023-07-02T09:27:40;99601.03;;;22.38;41.60
79370;BME280;68835;53.096;17.932;2023-07-02T09:30:13;99604.13;;;22.50;40.54
79370;BME280;68835;53.096;17.932;2023-07-02T09:32:47;99613.88;;;22.57;40.47
79370;BME280;68835;53.096;17.932;2023-07-02T09:35:27;99616.23;;;22.68;40.42
79370;BME280;68835;53.096;17.932;2023-07-02T09:38:00;99609.89;;;22.86;38.71
79370;BME280;68835;53.096;17.932;2023-07-02T09:40:26;99611.02;;;23.00;39.60
79370;BME280;68835;53.096;17.932;2023-07-02T09:43:04;99611.23;;;23.23;39.52
79370;BME280;68835;53.096;17.932;2023-07-02T09:46:07;99617.06;;;23.39;39.09
79370;BME280;68835;53.096;17.932;2023-07-02T09:48:37;99613.80;;;23.54;38.95
79370;BME280;68835;53.096;17.932;2023-07-02T09:51:04;99609.44;;;23.67;38.22
79370;BME280;68835;53.096;17.932;2023-07-02T09:53:31;99604.95;;;23.79;38.14
79370;BME280;68835;53.096;17.932;2023-07-02T09:56:01;99598.36;;;23.96;36.60
79370;BME280;68835;53.096;17.932;2023-07-02T09:58:30;99600.54;;;24.18;36.90
79370;BME280;68835;53.096;17.932;2023-07-02T10:00:59;99594.88;;;24.47;37.37
79370;BME280;68835;53.096;17.932;2023-07-02T10:03:35;99599.92;;;24.85;36.68
79370;BME280;68835;53.096;17.932;2023-07-02T10:06:05;99605.70;;;24.68;36.13
79370;BME280;68835;53.096;17.932;2023-07-02T10:08:33;99611.27;;;24.37;36.27
79370;BME280;68835;53.096;17.932;2023-07-02T10:11:12;99608.85;;;24.25;37.25
79370;BME280;68835;53.096;17.932;2023-07-02T10:13:40;99608.68;;;24.71;36.71
79370;BME280;68835;53.096;17.932;2023-07-02T10:16:07;99613.17;;;24.49;36.99
79370;BME280;68835;53.096;17.932;2023-07-02T10:18:37;99613.20;;;24.35;36.89
79370;BME280;68835;53.096;17.932;2023-07-02T10:21:17;99611.55;;;24.55;36.51
79370;BME280;68835;53.096;17.932;2023-07-02T10:23:50;99610.79;;;24.37;36.99
79370;BME280;68835;53.096;17.932;2023-07-02T10:26:22;99621.73;;;24.19;37.00
79370;BME280;68835;53.096;17.932;2023-07-02T10:28:59;99618.91;;;24.24;37.15
79370;BME280;68835;53.096;17.932;2023-07-02T10:31:28;99617.92;;;24.23;36.84
79370;BME280;68835;53.096;17.932;2023-07-02T10:33:58;99611.56;;;24.52;36.79
79370;BME280;68835;53.096;17.932;2023-07-02T10:36:26;99614.00;;;24.83;35.86
79370;BME280;68835;53.096;17.932;2023-07-02T10:39:02;99605.35;;;24.60;36.37
79370;BME280;68835;53.096;17.932;2023-07-02T10:41:32;99620.73;;;24.76;36.15
79370;BME280;68835;53.096;17.932;2023-07-02T10:44:08;99614.06;;;24.79;35.80
79370;BME280;68835;53.096;17.932;2023-07-02T10:46:44;99611.48;;;25.44;35.03
79370;BME280;68835;53.096;17.932;2023-07-02T10:49:17;99608.48;;;26.06;34.32
79370;BME280;68835;53.096;17.932;2023-07-02T10:51:44;99605.98;;;26.31;33.61
79370;BME280;68835;53.096;17.932;2023-07-02T10:54:13;99615.55;;;26.18;32.89
79370;BME280;68835;53.096;17.932;2023-07-02T10:56:41;99604.81;;;26.05;32.14
79370;BME280;68835;53.096;17.932;2023-07-02T10:59:08;99606.90;;;25.91;32.27
79370;BME280;68835;53.096;17.932;2023-07-02T11:01:38;99601.56;;;25.37;32.93
79370;BME280;68835;53.096;17.932;2023-07-02T11:04:06;99608.40;;;24.86;34.04
79370;BME280;68835;53.096;17.932;2023-07-02T11:06:33;99618.36;;;24.49;34.59
79370;BME280;68835;53.096;17.932;2023-07-02T11:09:01;99615.45;;;24.25;34.75
79370;BME280;68835;53.096;17.932;2023-07-02T11:11:31;99616.69;;;24.72;34.08
79370;BME280;68835;53.096;17.932;2023-07-02T11:13:58;99618.38;;;25.58;32.93
79370;BME280;68835;53.096;17.932;2023-07-02T11:16:27;99610.42;;;26.32;32.13
79370;BME280;68835;53.096;17.932;2023-07-02T11:19:07;99618.38;;;27.13;30.91
79370;BME280;68835;53.096;17.932;2023-07-02T11:21:37;99613.98;;;27.39;30.43
79370;BME280;68835;53.096;17.932;2023-07-02T11:24:11;99618.34;;;27.39;30.16
79370;BME280;68835;53.096;17.932;2023-07-02T11:26:40;99624.92;;;26.69;30.08
79370;BME280;68835;53.096;17.932;2023-07-02T11:29:17;99626.24;;;25.81;31.11
79370;BME280;68835;53.096;17.932;2023-07-02T11:31:46;99625.89;;;25.09;32.45
79370;BME280;68835;53.096;17.932;2023-07-02T11:34:18;99622.11;;;24.93;33.01
79370;BME280;68835;53.096;17.932;2023-07-02T11:36:46;99630.58;;;25.44;32.08
79370;BME280;68835;53.096;17.932;2023-07-02T11:39:14;99631.67;;;25.21;31.59
79370;BME280;68835;53.096;17.932;2023-07-02T11:41:44;99632.61;;;24.58;32.35
79370;BME280;68835;53.096;17.932;2023-07-02T11:44:11;99631.70;;;24.23;33.54
79370;BME280;68835;53.096;17.932;2023-07-02T11:46:38;99631.17;;;24.72;32.69
79370;BME280;68835;53.096;17.932;2023-07-02T11:49:05;99625.48;;;25.79;31.93
79370;BME280;68835;53.096;17.932;2023-07-02T11:51:38;99627.45;;;26.63;30.53
79370;BME280;68835;53.096;17.932;2023-07-02T11:54:07;99630.13;;;27.42;30.15
79370;BME280;68835;53.096;17.932;2023-07-02T11:56:34;99628.89;;;28.04;29.25
79370;BME280;68835;53.096;17.932;2023-07-02T11:59:01;99626.64;;;28.60;28.54
79370;BME280;68835;53.096;17.932;2023-07-02T12:01:30;99624.81;;;29.14;28.00
79370;BME280;68835;53.096;17.932;2023-07-02T12:04:00;99624.11;;;29.39;26.97
79370;BME280;68835;53.096;17.932;2023-07-02T12:06:27;99613.40;;;29.45;26.77
79370;BME280;68835;53.096;17.932;2023-07-02T12:08:54;99620.58;;;30.09;26.51
79370;BME280;68835;53.096;17.932;2023-07-02T12:11:22;99616.77;;;30.29;25.68
79370;BME280;68835;53.096;17.932;2023-07-02T12:13:48;99627.33;;;29.62;25.24
79370;BME280;68835;53.096;17.932;2023-07-02T12:16:15;99620.16;;;28.29;27.02
79370;BME280;68835;53.096;17.932;2023-07-02T12:18:42;99624.73;;;27.28;28.67
79370;BME280;68835;53.096;17.932;2023-07-02T12:21:10;99629.64;;;26.26;29.96
79370;BME280;68835;53.096;17.932;2023-07-02T12:23:38;99628.27;;;25.39;31.38
79370;BME280;68835;53.096;17.932;2023-07-02T12:26:04;99639.12;;;24.82;32.46
79370;BME280;68835;53.096;17.932;2023-07-02T12:28:32;99638.02;;;24.42;33.25
79370;BME280;68835;53.096;17.932;2023-07-02T12:30:59;99638.71;;;24.17;33.76
79370;BME280;68835;53.096;17.932;2023-07-02T12:33:28;99639.16;;;24.46;33.84
79370;BME280;68835;53.096;17.932;2023-07-02T12:35:55;99631.81;;;24.46;33.79
79370;BME280;68835;53.096;17.932;2023-07-02T12:38:22;99633.23;;;24.10;34.60
79370;BME280;68835;53.096;17.932;2023-07-02T12:40:48;99633.95;;;23.79;35.23
79370;BME280;68835;53.096;17.932;2023-07-02T12:43:15;99636.07;;;23.49;36.17
79370;BME280;68835;53.096;17.932;2023-07-02T12:45:41;99640.88;;;23.20;36.92
79370;BME280;68835;53.096;17.932;2023-07-02T12:48:08;99640.44;;;23.03;37.44
79370;BME280;68835;53.096;17.932;2023-07-02T12:50:38;99639.77;;;23.24;37.46
79370;BME280;68835;53.096;17.932;2023-07-02T12:53:06;99647.85;;;23.17;37.86
79370;BME280;68835;53.096;17.932;2023-07-02T12:55:32;99653.13;;;23.00;38.01
79370;BME280;68835;53.096;17.932;2023-07-02T12:57:59;99650.08;;;22.87;38.52
79370;BME280;68835;53.096;17.932;2023-07-02T13:00:27;99652.45;;;23.02;38.51
79370;BME280;68835;53.096;17.932;2023-07-02T13:02:56;99649.98;;;24.79;36.93
79370;BME280;68835;53.096;17.932;2023-07-02T13:05:23;99651.38;;;26.60;34.78